sensor_id;sensor_type;location;lat;lon;timestamp;P1;durP1;ratioP1;P2;durP2;ratioP2
14030;SDS011;7090;49.436;8.490;2023-12-22T00:01:08;14.40;;;13.70;;
14030;SDS011;7090;49.436;8.490;2023-12-22T00:03:34;14.00;;;13.20;;
14030;SDS011;7090;49.436;8.490;2023-12-22T00:05:59;14.30;;;13.60;;
14030;SDS011;7090;49.436;8.490;2023-12-22T00:08:25;13.93;;;13.33;;
14030;SDS011;7090;49.436;8.490;2023-12-22T00:10:51;14.80;;;14.10;;
14030;SDS011;7090;49.436;8.490;2023-12-22T00:13:16;15.30;;;14.60;;
14030;SDS011;7090;49.436;8.490;2023-12-22T00:15:42;15.70;;;15.00;;
14030;SDS011;7090;49.436;8.490;2023-12-22T00:18:08;15.20;;;14.50;;
14030;SDS011;7090;49.436;8.490;2023-12-22T00:20:34;13.90;;;13.30;;
14030;SDS011;7090;49.436;8.490;2023-12-22T00:23:00;13.60;;;13.00;;
14030;SDS011;7090;49.436;8.490;2023-12-22T00:25:25;13.50;;;12.90;;
14030;SDS011;7090;49.436;8.490;2023-12-22T00:27:51;14.30;;;13.60;;
14030;SDS011;7090;49.436;8.490;2023-12-22T00:30:17;13.90;;;13.30;;
14030;SDS011;7090;49.436;8.490;2023-12-22T00:32:42;14.20;;;13.60;;
14030;SDS011;7090;49.436;8.490;2023-12-22T00:35:08;14.20;;;13.50;;
14030;SDS011;7090;49.436;8.490;2023-12-22T00:37:33;13.70;;;13.10;;
14030;SDS011;7090;49.436;8.490;2023-12-22T00:39:59;13.67;;;13.07;;
14030;SDS011;7090;49.436;8.490;2023-12-22T00:42:25;13.50;;;12.90;;
14030;SDS011;7090;49.436;8.490;2023-12-22T00:44:51;13.80;;;13.20;;
14030;SDS011;7090;49.436;8.490;2023-12-22T00:47:17;14.10;;;13.50;;
14030;SDS011;7090;49.436;8.490;2023-12-22T00:49:42;14.40;;;13.80;;
14030;SDS011;7090;49.436;8.490;2023-12-22T00:52:08;14.60;;;13.90;;
14030;SDS011;7090;49.436;8.490;2023-12-22T00:54:34;14.77;;;13.97;;
14030;SDS011;7090;49.436;8.490;2023-12-22T00:56:59;14.67;;;13.97;;
14030;SDS011;7090;49.436;8.490;2023-12-22T00:59:25;14.47;;;13.77;;
14030;SDS011;7090;49.436;8.490;2023-12-22T01:01:50;14.70;;;14.00;;
14030;SDS011;7090;49.436;8.490;2023-12-22T01:04:16;14.60;;;13.90;;
14030;SDS011;7090;49.436;8.490;2023-12-22T01:06:42;14.07;;;13.47;;
14030;SDS011;7090;49.436;8.490;2023-12-22T01:09:07;15.00;;;14.30;;
14030;SDS011;7090;49.436;8.490;2023-12-22T01:11:33;14.70;;;14.00;;
14030;SDS011;7090;49.436;8.490;2023-12-22T01:13:59;14.63;;;13.93;;
14030;SDS011;7090;49.436;8.490;2023-12-22T01:16:24;14.33;;;13.63;;
14030;SDS011;7090;49.436;8.490;2023-12-22T01:18:50;13.27;;;12.67;;
14030;SDS011;7090;49.436;8.490;2023-12-22T01:21:16;13.33;;;12.73;;
14030;SDS011;7090;49.436;8.490;2023-12-22T01:23:42;12.90;;;12.30;;
14030;SDS011;7090;49.436;8.490;2023-12-22T01:26:08;13.30;;;12.50;;
14030;SDS011;7090;49.436;8.490;2023-12-22T01:28:36;12.20;;;11.60;;
14030;SDS011;7090;49.436;8.490;2023-12-22T01:31:02;11.97;;;11.37;;
14030;SDS011;7090;49.436;8.490;2023-12-22T01:33:28;11.10;;;10.60;;
14030;SDS011;7090;49.436;8.490;2023-12-22T01:35:54;11.33;;;10.83;;
14030;SDS011;7090;49.436;8.490;2023-12-22T01:38:20;10.97;;;10.47;;
14030;SDS011;7090;49.436;8.490;2023-12-22T01:40:46;11.10;;;10.60;;
14030;SDS011;7090;49.436;8.490;2023-12-22T01:43:12;11.23;;;10.73;;
14030;SDS011;7090;49.436;8.490;2023-12-22T01:45:39;12.10;;;11.60;;
14030;SDS011;7090;49.436;8.490;2023-12-22T01:48:08;10.60;;;10.07;;
14030;SDS011;7090;49.436;8.490;2023-12-22T01:50:34;10.33;;;9.93;;
14030;SDS011;7090;49.436;8.490;2023-12-22T01:53:02;10.40;;;10.00;;
14030;SDS011;7090;49.436;8.490;2023-12-22T01:55:27;10.27;;;9.83;;
14030;SDS011;7090;49.436;8.490;2023-12-22T01:57:54;10.40;;;10.00;;
14030;SDS011;7090;49.436;8.490;2023-12-22T02:00:21;11.70;;;11.13;;
14030;SDS011;7090;49.436;8.490;2023-12-22T02:02:47;10.90;;;10.40;;
14030;SDS011;7090;49.436;8.490;2023-12-22T02:05:13;10.70;;;10.30;;
14030;SDS011;7090;49.436;8.490;2023-12-22T02:07:38;11.40;;;10.90;;
14030;SDS011;7090;49.436;8.490;2023-12-22T02:10:07;11.93;;;11.43;;
14030;SDS011;7090;49.436;8.490;2023-12-22T02:12:34;12.53;;;12.00;;
14030;SDS011;7090;49.436;8.490;2023-12-22T02:15:00;13.10;;;12.30;;
14030;SDS011;7090;49.436;8.490;2023-12-22T02:17:29;13.20;;;12.60;;
14030;SDS011;7090;49.436;8.490;2023-12-22T02:20:06;13.30;;;12.70;;
14030;SDS011;7090;49.436;8.490;2023-12-22T02:22:34;14.47;;;13.57;;
14030;SDS011;7090;49.436;8.490;2023-12-22T02:24:59;16.30;;;14.87;;
14030;SDS011;7090;49.436;8.490;2023-12-22T02:27:28;15.60;;;14.80;;
14030;SDS011;7090;49.436;8.490;2023-12-22T02:30:19;16.70;;;15.33;;
14030;SDS011;7090;49.436;8.490;2023-12-22T02:33:07;15.10;;;14.40;;
14030;SDS011;7090;49.436;8.490;2023-12-22T02:35:37;14.87;;;14.17;;
14030;SDS011;7090;49.436;8.490;2023-12-22T02:38:06;13.33;;;12.60;;
14030;SDS011;7090;49.436;8.490;2023-12-22T02:40:33;13.23;;;12.63;;
14030;SDS011;7090;49.436;8.490;2023-12-22T02:42:59;11.70;;;11.10;;
14030;SDS011;7090;49.436;8.490;2023-12-22T02:45:27;11.70;;;11.20;;
14030;SDS011;7090;49.436;8.490;2023-12-22T02:47:52;11.80;;;11.30;;
14030;SDS011;7090;49.436;8.490;2023-12-22T02:50:18;12.50;;;12.00;;
14030;SDS011;7090;49.436;8.490;2023-12-22T02:52:43;12.60;;;11.90;;
14030;SDS011;7090;49.436;8.490;2023-12-22T02:55:09;11.67;;;11.27;;
14030;SDS011;7090;49.436;8.490;2023-12-22T02:57:35;12.23;;;11.73;;
14030;SDS011;7090;49.436;8.490;2023-12-22T03:00:00;11.93;;;11.43;;
14030;SDS011;7090;49.436;8.490;2023-12-22T03:02:26;11.60;;;11.10;;
14030;SDS011;7090;49.436;8.490;2023-12-22T03:04:51;12.23;;;11.63;;
14030;SDS011;7090;49.436;8.490;2023-12-22T03:07:17;11.60;;;11.07;;
14030;SDS011;7090;49.436;8.490;2023-12-22T03:09:43;11.30;;;10.90;;
14030;SDS011;7090;49.436;8.490;2023-12-22T03:12:09;12.53;;;11.97;;
14030;SDS011;7090;49.436;8.490;2023-12-22T03:14:35;11.53;;;10.83;;
14030;SDS011;7090;49.436;8.490;2023-12-22T03:17:02;11.53;;;10.93;;
14030;SDS011;7090;49.436;8.490;2023-12-22T03:19:28;10.30;;;9.90;;
14030;SDS011;7090;49.436;8.490;2023-12-22T03:21:54;10.70;;;10.30;;
14030;SDS011;7090;49.436;8.490;2023-12-22T03:24:20;10.93;;;10.30;;
14030;SDS011;7090;49.436;8.490;2023-12-22T03:26:47;10.00;;;9.60;;
14030;SDS011;7090;49.436;8.490;2023-12-22T03:29:13;9.50;;;9.10;;
14030;SDS011;7090;49.436;8.490;2023-12-22T03:31:39;8.87;;;8.40;;
14030;SDS011;7090;49.436;8.490;2023-12-22T03:34:05;8.87;;;8.43;;
14030;SDS011;7090;49.436;8.490;2023-12-22T03:36:31;7.90;;;7.60;;
14030;SDS011;7090;49.436;8.490;2023-12-22T03:38:59;9.13;;;8.57;;
14030;SDS011;7090;49.436;8.490;2023-12-22T03:41:24;8.33;;;8.03;;
14030;SDS011;7090;49.436;8.490;2023-12-22T03:43:50;8.73;;;8.23;;
14030;SDS011;7090;49.436;8.490;2023-12-22T03:46:15;8.10;;;7.43;;
14030;SDS011;7090;49.436;8.490;2023-12-22T03:48:41;6.90;;;6.60;;
14030;SDS011;7090;49.436;8.490;2023-12-22T03:51:07;6.90;;;6.40;;
14030;SDS011;7090;49.436;8.490;2023-12-22T03:53:33;7.00;;;6.60;;
14030;SDS011;7090;49.436;8.490;2023-12-22T03:55:58;7.63;;;6.90;;
14030;SDS011;7090;49.436;8.490;2023-12-22T03:58:24;5.80;;;5.60;;
14030;SDS011;7090;49.436;8.490;2023-12-22T04:00:51;6.70;;;6.20;;
14030;SDS011;7090;49.436;8.490;2023-12-22T04:03:16;6.77;;;6.00;;
14030;SDS011;7090;49.436;8.490;2023-12-22T04:05:42;6.40;;;6.10;;
14030;SDS011;7090;49.436;8.490;2023-12-22T04:08:07;6.77;;;6.17;;
14030;SDS011;7090;49.436;8.490;2023-12-22T04:10:33;6.17;;;5.87;;
14030;SDS011;7090;49.436;8.490;2023-12-22T04:12:59;6.10;;;5.80;;
14030;SDS011;7090;49.436;8.490;2023-12-22T04:15:24;5.30;;;5.10;;
14030;SDS011;7090;49.436;8.490;2023-12-22T04:17:50;6.10;;;5.80;;
14030;SDS011;7090;49.436;8.490;2023-12-22T04:20:15;6.10;;;5.90;;
14030;SDS011;7090;49.436;8.490;2023-12-22T04:22:41;6.23;;;5.77;;
14030;SDS011;7090;49.436;8.490;2023-12-22T04:25:07;6.07;;;5.57;;
14030;SDS011;7090;49.436;8.490;2023-12-22T04:27:34;5.97;;;5.63;;
14030;SDS011;7090;49.436;8.490;2023-12-22T04:29:59;6.07;;;5.77;;
14030;SDS011;7090;49.436;8.490;2023-12-22T04:32:25;6.80;;;6.17;;
14030;SDS011;7090;49.436;8.490;2023-12-22T04:34:51;8.97;;;6.70;;
14030;SDS011;7090;49.436;8.490;2023-12-22T04:37:16;6.90;;;6.13;;
14030;SDS011;7090;49.436;8.490;2023-12-22T04:39:42;6.37;;;5.93;;
14030;SDS011;7090;49.436;8.490;2023-12-22T04:42:10;7.10;;;6.60;;
14030;SDS011;7090;49.436;8.490;2023-12-22T04:44:36;6.60;;;6.07;;
14030;SDS011;7090;49.436;8.490;2023-12-22T04:47:01;6.87;;;6.37;;
14030;SDS011;7090;49.436;8.490;2023-12-22T04:49:27;6.47;;;6.00;;
14030;SDS011;7090;49.436;8.490;2023-12-22T04:51:53;6.47;;;5.97;;
14030;SDS011;7090;49.436;8.490;2023-12-22T04:54:18;5.50;;;5.30;;
14030;SDS011;7090;49.436;8.490;2023-12-22T04:56:44;5.90;;;5.63;;
14030;SDS011;7090;49.436;8.490;2023-12-22T04:59:10;5.87;;;5.47;;
14030;SDS011;7090;49.436;8.490;2023-12-22T05:01:35;7.53;;;6.30;;
14030;SDS011;7090;49.436;8.490;2023-12-22T05:04:01;6.37;;;6.07;;
14030;SDS011;7090;49.436;8.490;2023-12-22T05:06:27;8.43;;;8.13;;
14030;SDS011;7090;49.436;8.490;2023-12-22T05:08:54;10.90;;;10.10;;
14030;SDS011;7090;49.436;8.490;2023-12-22T05:11:21;11.27;;;10.67;;
14030;SDS011;7090;49.436;8.490;2023-12-22T05:13:47;12.03;;;10.93;;
14030;SDS011;7090;49.436;8.490;2023-12-22T05:16:12;11.03;;;10.53;;
14030;SDS011;7090;49.436;8.490;2023-12-22T05:18:38;11.00;;;10.60;;
14030;SDS011;7090;49.436;8.490;2023-12-22T05:21:04;11.60;;;10.83;;
14030;SDS011;7090;49.436;8.490;2023-12-22T05:23:30;11.80;;;11.20;;
14030;SDS011;7090;49.436;8.490;2023-12-22T05:25:55;11.10;;;10.50;;
14030;SDS011;7090;49.436;8.490;2023-12-22T05:28:21;11.50;;;10.90;;
14030;SDS011;7090;49.436;8.490;2023-12-22T05:30:47;11.37;;;10.60;;
14030;SDS011;7090;49.436;8.490;2023-12-22T05:33:12;10.60;;;10.10;;
14030;SDS011;7090;49.436;8.490;2023-12-22T05:35:38;9.93;;;9.53;;
14030;SDS011;7090;49.436;8.490;2023-12-22T05:38:03;10.30;;;9.90;;
14030;SDS011;7090;49.436;8.490;2023-12-22T05:40:30;10.10;;;9.70;;
14030;SDS011;7090;49.436;8.490;2023-12-22T05:42:56;11.47;;;10.43;;
14030;SDS011;7090;49.436;8.490;2023-12-22T05:45:22;10.90;;;10.40;;
14030;SDS011;7090;49.436;8.490;2023-12-22T05:47:49;10.33;;;9.93;;
14030;SDS011;7090;49.436;8.490;2023-12-22T05:50:15;10.40;;;10.00;;
14030;SDS011;7090;49.436;8.490;2023-12-22T05:52:41;10.83;;;10.23;;
14030;SDS011;7090;49.436;8.490;2023-12-22T05:55:08;10.80;;;10.40;;
14030;SDS011;7090;49.436;8.490;2023-12-22T05:57:34;10.30;;;9.90;;
14030;SDS011;7090;49.436;8.490;2023-12-22T06:00:00;10.23;;;9.70;;
14030;SDS011;7090;49.436;8.490;2023-12-22T06:02:25;9.13;;;8.73;;
14030;SDS011;7090;49.436;8.490;2023-12-22T06:04:51;9.17;;;8.30;;
14030;SDS011;7090;49.436;8.490;2023-12-22T06:07:16;7.90;;;7.50;;
14030;SDS011;7090;49.436;8.490;2023-12-22T06:09:44;7.97;;;7.47;;
14030;SDS011;7090;49.436;8.490;2023-12-22T06:12:10;8.47;;;7.10;;
14030;SDS011;7090;49.436;8.490;2023-12-22T06:14:35;7.03;;;6.73;;
14030;SDS011;7090;49.436;8.490;2023-12-22T06:17:01;6.67;;;6.40;;
14030;SDS011;7090;49.436;8.490;2023-12-22T06:19:27;12.87;;;7.70;;
14030;SDS011;7090;49.436;8.490;2023-12-22T06:21:55;7.07;;;6.77;;
14030;SDS011;7090;49.436;8.490;2023-12-22T06:24:22;7.77;;;7.37;;
14030;SDS011;7090;49.436;8.490;2023-12-22T06:26:48;6.80;;;6.60;;
14030;SDS011;7090;49.436;8.490;2023-12-22T06:29:13;7.10;;;6.90;;
14030;SDS011;7090;49.436;8.490;2023-12-22T06:31:39;8.53;;;7.87;;
14030;SDS011;7090;49.436;8.490;2023-12-22T06:34:05;10.37;;;7.90;;
14030;SDS011;7090;49.436;8.490;2023-12-22T06:36:30;7.67;;;7.37;;
14030;SDS011;7090;49.436;8.490;2023-12-22T06:38:56;7.93;;;7.53;;
14030;SDS011;7090;49.436;8.490;2023-12-22T06:41:29;6.67;;;6.37;;
14030;SDS011;7090;49.436;8.490;2023-12-22T06:43:56;6.20;;;6.00;;
14030;SDS011;7090;49.436;8.490;2023-12-22T06:46:24;7.33;;;6.70;;
14030;SDS011;7090;49.436;8.490;2023-12-22T06:48:51;8.70;;;6.60;;
14030;SDS011;7090;49.436;8.490;2023-12-22T06:51:23;6.50;;;6.10;;
14030;SDS011;7090;49.436;8.490;2023-12-22T06:53:55;6.77;;;6.27;;
14030;SDS011;7090;49.436;8.490;2023-12-22T06:56:22;6.43;;;6.10;;
14030;SDS011;7090;49.436;8.490;2023-12-22T06:58:50;6.17;;;5.90;;
14030;SDS011;7090;49.436;8.490;2023-12-22T07:01:30;8.73;;;5.70;;
14030;SDS011;7090;49.436;8.490;2023-12-22T07:04:00;13.00;;;6.70;;
14030;SDS011;7090;49.436;8.490;2023-12-22T07:06:27;6.00;;;5.33;;
14030;SDS011;7090;49.436;8.490;2023-12-22T07:11:37;5.90;;;5.47;;
14030;SDS011;7090;49.436;8.490;2023-12-22T07:14:03;4.63;;;4.50;;
14030;SDS011;7090;49.436;8.490;2023-12-22T07:16:29;4.40;;;4.20;;
14030;SDS011;7090;49.436;8.490;2023-12-22T07:18:54;4.60;;;4.40;;
14030;SDS011;7090;49.436;8.490;2023-12-22T07:21:20;5.40;;;5.10;;
14030;SDS011;7090;49.436;8.490;2023-12-22T07:23:46;4.90;;;4.70;;
14030;SDS011;7090;49.436;8.490;2023-12-22T07:26:11;4.10;;;4.00;;
14030;SDS011;7090;49.436;8.490;2023-12-22T07:28:37;4.67;;;4.47;;
14030;SDS011;7090;49.436;8.490;2023-12-22T07:31:03;4.70;;;4.50;;
14030;SDS011;7090;49.436;8.490;2023-12-22T07:33:28;4.23;;;3.93;;
14030;SDS011;7090;49.436;8.490;2023-12-22T07:35:54;4.20;;;4.10;;
14030;SDS011;7090;49.436;8.490;2023-12-22T07:38:20;5.10;;;4.63;;
14030;SDS011;7090;49.436;8.490;2023-12-22T07:40:45;4.80;;;4.40;;
14030;SDS011;7090;49.436;8.490;2023-12-22T07:43:11;4.80;;;4.60;;
14030;SDS011;7090;49.436;8.490;2023-12-22T07:45:38;4.60;;;4.40;;
14030;SDS011;7090;49.436;8.490;2023-12-22T07:48:03;4.93;;;4.53;;
14030;SDS011;7090;49.436;8.490;2023-12-22T07:50:29;4.27;;;4.17;;
14030;SDS011;7090;49.436;8.490;2023-12-22T07:52:55;5.30;;;4.90;;
14030;SDS011;7090;49.436;8.490;2023-12-22T07:55:20;4.80;;;4.60;;
14030;SDS011;7090;49.436;8.490;2023-12-22T07:57:46;5.10;;;4.90;;
14030;SDS011;7090;49.436;8.490;2023-12-22T08:00:12;5.00;;;4.80;;
14030;SDS011;7090;49.436;8.490;2023-12-22T08:02:38;5.87;;;5.30;;
14030;SDS011;7090;49.436;8.490;2023-12-22T08:05:04;5.50;;;5.30;;
14030;SDS011;7090;49.436;8.490;2023-12-22T08:07:29;5.50;;;5.20;;
14030;SDS011;7090;49.436;8.490;2023-12-22T08:09:55;5.17;;;4.97;;
14030;SDS011;7090;49.436;8.490;2023-12-22T08:12:21;5.93;;;5.60;;
14030;SDS011;7090;49.436;8.490;2023-12-22T08:14:47;5.70;;;5.50;;
14030;SDS011;7090;49.436;8.490;2023-12-22T08:17:13;5.80;;;5.60;;
14030;SDS011;7090;49.436;8.490;2023-12-22T08:19:39;5.80;;;5.60;;
14030;SDS011;7090;49.436;8.490;2023-12-22T08:22:08;6.40;;;6.10;;
14030;SDS011;7090;49.436;8.490;2023-12-22T08:24:39;9.63;;;7.00;;
14030;SDS011;7090;49.436;8.490;2023-12-22T08:27:05;9.63;;;9.10;;
14030;SDS011;7090;49.436;8.490;2023-12-22T08:29:34;10.07;;;9.60;;
14030;SDS011;7090;49.436;8.490;2023-12-22T08:32:00;11.40;;;10.50;;
14030;SDS011;7090;49.436;8.490;2023-12-22T08:34:26;11.33;;;9.97;;
14030;SDS011;7090;49.436;8.490;2023-12-22T08:36:52;9.83;;;9.37;;
14030;SDS011;7090;49.436;8.490;2023-12-22T08:39:17;10.00;;;9.50;;
14030;SDS011;7090;49.436;8.490;2023-12-22T08:41:43;10.13;;;9.43;;
14030;SDS011;7090;49.436;8.490;2023-12-22T08:44:10;11.70;;;9.57;;
14030;SDS011;7090;49.436;8.490;2023-12-22T08:46:36;8.93;;;8.50;;
14030;SDS011;7090;49.436;8.490;2023-12-22T08:49:02;8.13;;;7.80;;
14030;SDS011;7090;49.436;8.490;2023-12-22T08:51:28;8.17;;;7.47;;
14030;SDS011;7090;49.436;8.490;2023-12-22T08:53:54;7.23;;;6.63;;
14030;SDS011;7090;49.436;8.490;2023-12-22T08:56:20;6.53;;;6.10;;
14030;SDS011;7090;49.436;8.490;2023-12-22T08:58:47;7.20;;;6.50;;
14030;SDS011;7090;49.436;8.490;2023-12-22T09:01:16;6.70;;;6.40;;
14030;SDS011;7090;49.436;8.490;2023-12-22T09:03:41;7.20;;;6.60;;
14030;SDS011;7090;49.436;8.490;2023-12-22T09:06:11;7.20;;;6.70;;
14030;SDS011;7090;49.436;8.490;2023-12-22T09:08:41;8.47;;;6.80;;
14030;SDS011;7090;49.436;8.490;2023-12-22T09:11:07;5.40;;;5.20;;
14030;SDS011;7090;49.436;8.490;2023-12-22T09:13:33;6.70;;;6.20;;
14030;SDS011;7090;49.436;8.490;2023-12-22T09:16:00;7.80;;;7.03;;
14030;SDS011;7090;49.436;8.490;2023-12-22T09:18:27;9.13;;;6.50;;
14030;SDS011;7090;49.436;8.490;2023-12-22T09:20:53;7.50;;;6.00;;
14030;SDS011;7090;49.436;8.490;2023-12-22T09:23:18;10.13;;;5.87;;
14030;SDS011;7090;49.436;8.490;2023-12-22T09:25:45;7.70;;;5.70;;
14030;SDS011;7090;49.436;8.490;2023-12-22T09:28:10;6.07;;;5.67;;
14030;SDS011;7090;49.436;8.490;2023-12-22T09:30:36;5.60;;;5.30;;
14030;SDS011;7090;49.436;8.490;2023-12-22T09:33:01;5.73;;;5.33;;
14030;SDS011;7090;49.436;8.490;2023-12-22T09:35:27;5.73;;;5.20;;
14030;SDS011;7090;49.436;8.490;2023-12-22T09:37:53;6.17;;;5.50;;
14030;SDS011;7090;49.436;8.490;2023-12-22T09:40:19;7.20;;;5.60;;
14030;SDS011;7090;49.436;8.490;2023-12-22T09:42:46;6.13;;;5.20;;
14030;SDS011;7090;49.436;8.490;2023-12-22T09:45:12;5.07;;;4.80;;
14030;SDS011;7090;49.436;8.490;2023-12-22T09:47:41;11.47;;;5.77;;
14030;SDS011;7090;49.436;8.490;2023-12-22T09:50:09;12.13;;;5.85;;
14030;SDS011;7090;49.436;8.490;2023-12-22T09:52:35;9.57;;;5.40;;
14030;SDS011;7090;49.436;8.490;2023-12-22T09:55:02;5.87;;;5.40;;
14030;SDS011;7090;49.436;8.490;2023-12-22T09:57:29;5.30;;;5.00;;
14030;SDS011;7090;49.436;8.490;2023-12-22T09:59:55;6.40;;;5.87;;
14030;SDS011;7090;49.436;8.490;2023-12-22T10:02:24;5.90;;;4.93;;
14030;SDS011;7090;49.436;8.490;2023-12-22T10:04:52;5.43;;;5.03;;
14030;SDS011;7090;49.436;8.490;2023-12-22T10:07:18;7.33;;;5.33;;
14030;SDS011;7090;49.436;8.490;2023-12-22T10:09:46;4.70;;;4.50;;
14030;SDS011;7090;49.436;8.490;2023-12-22T10:12:13;13.20;;;5.63;;
14030;SDS011;7090;49.436;8.490;2023-12-22T10:14:40;9.47;;;5.20;;
14030;SDS011;7090;49.436;8.490;2023-12-22T10:17:07;8.93;;;5.53;;
14030;SDS011;7090;49.436;8.490;2023-12-22T10:19:32;6.87;;;5.43;;
14030;SDS011;7090;49.436;8.490;2023-12-22T10:21:58;12.87;;;5.37;;
14030;SDS011;7090;49.436;8.490;2023-12-22T10:24:40;6.47;;;5.90;;
14030;SDS011;7090;49.436;8.490;2023-12-22T10:27:09;4.57;;;4.33;;
14030;SDS011;7090;49.436;8.490;2023-12-22T10:29:36;6.53;;;5.77;;
14030;SDS011;7090;49.436;8.490;2023-12-22T10:32:02;7.03;;;6.23;;
14030;SDS011;7090;49.436;8.490;2023-12-22T10:34:29;7.13;;;5.90;;
14030;SDS011;7090;49.436;8.490;2023-12-22T10:36:55;8.77;;;5.30;;
14030;SDS011;7090;49.436;8.490;2023-12-22T10:39:21;5.70;;;5.23;;
14030;SDS011;7090;49.436;8.490;2023-12-22T10:41:47;5.27;;;4.97;;
14030;SDS011;7090;49.436;8.490;2023-12-22T10:44:16;5.57;;;5.20;;
14030;SDS011;7090;49.436;8.490;2023-12-22T10:46:42;6.63;;;4.77;;
14030;SDS011;7090;49.436;8.490;2023-12-22T10:49:08;8.97;;;5.43;;
14030;SDS011;7090;49.436;8.490;2023-12-22T10:51:34;5.20;;;4.80;;
14030;SDS011;7090;49.436;8.490;2023-12-22T10:54:00;14.00;;;5.80;;
14030;SDS011;7090;49.436;8.490;2023-12-22T10:56:25;10.37;;;6.77;;
14030;SDS011;7090;49.436;8.490;2023-12-22T10:58:53;5.50;;;5.03;;
14030;SDS011;7090;49.436;8.490;2023-12-22T11:01:18;5.23;;;4.90;;
14030;SDS011;7090;49.436;8.490;2023-12-22T11:03:47;6.80;;;6.03;;
14030;SDS011;7090;49.436;8.490;2023-12-22T11:06:15;14.17;;;6.93;;
14030;SDS011;7090;49.436;8.490;2023-12-22T11:08:43;7.90;;;5.67;;
14030;SDS011;7090;49.436;8.490;2023-12-22T11:11:13;11.57;;;5.53;;
14030;SDS011;7090;49.436;8.490;2023-12-22T11:13:44;5.67;;;4.63;;
14030;SDS011;7090;49.436;8.490;2023-12-22T11:16:10;8.02;;;5.53;;
14030;SDS011;7090;49.436;8.490;2023-12-22T11:18:37;7.30;;;6.67;;
14030;SDS011;7090;49.436;8.490;2023-12-22T11:21:03;8.90;;;8.07;;
14030;SDS011;7090;49.436;8.490;2023-12-22T11:23:31;9.60;;;8.90;;
14030;SDS011;7090;49.436;8.490;2023-12-22T11:25:58;9.63;;;8.90;;
14030;SDS011;7090;49.436;8.490;2023-12-22T11:28:26;9.27;;;8.60;;
14030;SDS011;7090;49.436;8.490;2023-12-22T11:30:51;8.70;;;8.20;;
14030;SDS011;7090;49.436;8.490;2023-12-22T11:33:19;9.63;;;8.57;;
14030;SDS011;7090;49.436;8.490;2023-12-22T11:35:46;8.80;;;8.30;;
14030;SDS011;7090;49.436;8.490;2023-12-22T11:38:12;11.17;;;8.33;;
14030;SDS011;7090;49.436;8.490;2023-12-22T11:40:39;7.37;;;6.97;;
14030;SDS011;7090;49.436;8.490;2023-12-22T11:43:05;8.43;;;7.60;;
14030;SDS011;7090;49.436;8.490;2023-12-22T11:45:32;6.70;;;6.30;;
14030;SDS011;7090;49.436;8.490;2023-12-22T11:48:10;12.23;;;7.80;;
14030;SDS011;7090;49.436;8.490;2023-12-22T11:50:36;6.60;;;6.10;;
14030;SDS011;7090;49.436;8.490;2023-12-22T11:53:18;7.43;;;7.03;;
14030;SDS011;7090;49.436;8.490;2023-12-22T11:55:58;8.93;;;6.93;;
14030;SDS011;7090;49.436;8.490;2023-12-22T12:01:02;5.80;;;5.40;;
14030;SDS011;7090;49.436;8.490;2023-12-22T12:03:48;6.20;;;5.80;;
14030;SDS011;7090;49.436;8.490;2023-12-22T12:08:59;8.30;;;5.70;;
14030;SDS011;7090;49.436;8.490;2023-12-22T12:14:20;6.23;;;5.90;;
14030;SDS011;7090;49.436;8.490;2023-12-22T12:16:47;6.60;;;6.10;;
14030;SDS011;7090;49.436;8.490;2023-12-22T12:19:13;6.70;;;6.40;;
14030;SDS011;7090;49.436;8.490;2023-12-22T12:21:39;6.77;;;6.37;;
14030;SDS011;7090;49.436;8.490;2023-12-22T12:24:05;6.43;;;6.03;;
14030;SDS011;7090;49.436;8.490;2023-12-22T12:26:34;5.90;;;5.70;;
14030;SDS011;7090;49.436;8.490;2023-12-22T12:29:00;5.90;;;5.70;;
14030;SDS011;7090;49.436;8.490;2023-12-22T12:31:36;6.50;;;6.03;;
14030;SDS011;7090;49.436;8.490;2023-12-22T12:34:06;6.43;;;6.20;;
14030;SDS011;7090;49.436;8.490;2023-12-22T12:36:35;6.17;;;5.87;;
14030;SDS011;7090;49.436;8.490;2023-12-22T12:39:04;5.90;;;5.70;;
14030;SDS011;7090;49.436;8.490;2023-12-22T12:41:42;6.03;;;5.63;;
14030;SDS011;7090;49.436;8.490;2023-12-22T12:44:11;6.13;;;5.80;;
14030;SDS011;7090;49.436;8.490;2023-12-22T12:46:37;6.00;;;5.70;;
14030;SDS011;7090;49.436;8.490;2023-12-22T12:54:26;6.80;;;6.50;;
14030;SDS011;7090;49.436;8.490;2023-12-22T12:56:52;7.40;;;7.10;;
14030;SDS011;7090;49.436;8.490;2023-12-22T12:59:18;6.80;;;6.50;;
14030;SDS011;7090;49.436;8.490;2023-12-22T13:01:45;6.90;;;6.70;;
14030;SDS011;7090;49.436;8.490;2023-12-22T13:04:11;6.97;;;6.67;;
14030;SDS011;7090;49.436;8.490;2023-12-22T13:06:44;6.90;;;6.40;;
14030;SDS011;7090;49.436;8.490;2023-12-22T13:09:09;6.53;;;6.23;;
14030;SDS011;7090;49.436;8.490;2023-12-22T13:11:35;6.13;;;5.80;;
14030;SDS011;7090;49.436;8.490;2023-12-22T13:14:02;6.10;;;5.83;;
14030;SDS011;7090;49.436;8.490;2023-12-22T13:16:28;6.40;;;6.10;;
14030;SDS011;7090;49.436;8.490;2023-12-22T13:18:57;6.10;;;5.90;;
14030;SDS011;7090;49.436;8.490;2023-12-22T13:21:23;5.90;;;5.60;;
14030;SDS011;7090;49.436;8.490;2023-12-22T13:24:08;6.23;;;6.03;;
14030;SDS011;7090;49.436;8.490;2023-12-22T13:26:38;5.90;;;5.70;;
14030;SDS011;7090;49.436;8.490;2023-12-22T13:29:05;6.13;;;5.53;;
14030;SDS011;7090;49.436;8.490;2023-12-22T13:31:41;6.00;;;5.80;;
14030;SDS011;7090;49.436;8.490;2023-12-22T13:34:13;6.03;;;5.83;;
14030;SDS011;7090;49.436;8.490;2023-12-22T13:36:40;5.70;;;5.50;;
14030;SDS011;7090;49.436;8.490;2023-12-22T13:39:09;5.40;;;5.20;;
14030;SDS011;7090;49.436;8.490;2023-12-22T13:41:40;5.10;;;4.90;;
14030;SDS011;7090;49.436;8.490;2023-12-22T13:44:10;5.60;;;5.40;;
14030;SDS011;7090;49.436;8.490;2023-12-22T13:46:36;5.50;;;5.20;;
14030;SDS011;7090;49.436;8.490;2023-12-22T13:49:05;5.50;;;5.30;;
14030;SDS011;7090;49.436;8.490;2023-12-22T13:51:41;5.60;;;5.40;;
14030;SDS011;7090;49.436;8.490;2023-12-22T13:54:12;5.13;;;4.93;;
14030;SDS011;7090;49.436;8.490;2023-12-22T13:56:38;5.33;;;5.13;;
14030;SDS011;7090;49.436;8.490;2023-12-22T13:59:08;5.40;;;5.20;;
14030;SDS011;7090;49.436;8.490;2023-12-22T14:01:34;5.50;;;5.30;;
14030;SDS011;7090;49.436;8.490;2023-12-22T14:04:00;5.60;;;5.40;;
14030;SDS011;7090;49.436;8.490;2023-12-22T14:06:26;5.67;;;5.40;;
14030;SDS011;7090;49.436;8.490;2023-12-22T14:08:53;5.77;;;5.57;;
14030;SDS011;7090;49.436;8.490;2023-12-22T14:11:19;5.60;;;5.40;;
14030;SDS011;7090;49.436;8.490;2023-12-22T14:13:45;5.80;;;5.60;;
14030;SDS011;7090;49.436;8.490;2023-12-22T14:16:10;5.70;;;5.50;;
14030;SDS011;7090;49.436;8.490;2023-12-22T14:18:36;5.80;;;5.60;;
14030;SDS011;7090;49.436;8.490;2023-12-22T14:21:01;5.80;;;5.60;;
14030;SDS011;7090;49.436;8.490;2023-12-22T14:23:30;5.70;;;5.50;;
14030;SDS011;7090;49.436;8.490;2023-12-22T14:25:56;5.90;;;5.60;;
14030;SDS011;7090;49.436;8.490;2023-12-22T14:28:21;5.93;;;5.63;;
14030;SDS011;7090;49.436;8.490;2023-12-22T14:30:47;6.00;;;5.80;;
14030;SDS011;7090;49.436;8.490;2023-12-22T14:33:12;6.20;;;5.90;;
14030;SDS011;7090;49.436;8.490;2023-12-22T14:35:38;5.68;;;5.47;;
14030;SDS011;7090;49.436;8.490;2023-12-22T14:38:04;5.90;;;5.60;;
14030;SDS011;7090;49.436;8.490;2023-12-22T14:40:29;5.40;;;5.20;;
14030;SDS011;7090;49.436;8.490;2023-12-22T14:42:55;5.50;;;5.30;;
14030;SDS011;7090;49.436;8.490;2023-12-22T14:45:21;5.23;;;5.03;;
14030;SDS011;7090;49.436;8.490;2023-12-22T14:47:47;5.20;;;5.00;;
14030;SDS011;7090;49.436;8.490;2023-12-22T14:50:13;5.73;;;5.53;;
14030;SDS011;7090;49.436;8.490;2023-12-22T14:52:39;5.30;;;5.10;;
14030;SDS011;7090;49.436;8.490;2023-12-22T14:55:05;5.20;;;5.00;;
14030;SDS011;7090;49.436;8.490;2023-12-22T14:57:31;5.33;;;5.13;;
14030;SDS011;7090;49.436;8.490;2023-12-22T14:59:58;5.23;;;5.03;;
14030;SDS011;7090;49.436;8.490;2023-12-22T15:02:24;5.50;;;5.30;;
14030;SDS011;7090;49.436;8.490;2023-12-22T15:04:50;6.00;;;5.80;;
14030;SDS011;7090;49.436;8.490;2023-12-22T15:07:16;6.07;;;5.80;;